Time;durP1;ratioP1;P1;durP2;ratioP2;P2;SDS_P1;SDS_P2;PMS_P1;PMS_P2;Temp;Humidity;BMP_temperature;BMP_pressure;BME280_temperature;BME280_humidity;BME280_pressure;Samples;Min_cycle;Max_cycle;Signal;HPM_P1;HPM_P2
2023/10/27 00:00:30;;;;;;;30.75;16.67;;;;;;;;;;5112115;28;20211;-74
2023/10/27 00:02:56;;;;;;;31.80;17.25;;;;;;;;;;5098443;28;20116;-74
2023/10/27 00:05:21;;;;;;;33.10;16.90;;;;;;;;;;5089464;28;20036;-74
2023/10/27 00:07:47;;;;;;;30.33;16.85;;;;;;;;;;5093472;28;20028;-76
2023/10/27 00:10:13;;;;;;;31.00;16.65;;;;;;;;;;5089410;28;20039;-76
2023/10/27 00:12:38;;;;;;;41.72;17.15;;;;;;;;;;5091188;28;20032;-75
2023/10/27 00:15:05;;;;;;;31.77;16.73;;;;;;;;;;5101979;28;20084;-74
2023/10/27 00:17:30;;;;;;;31.58;16.23;;;;;;;;;;5096950;28;20028;-75
2023/10/27 00:19:56;;;;;;;29.80;16.60;;;;;;;;;;5088710;28;20031;-74
2023/10/27 00:22:22;;;;;;;31.05;16.48;;;;;;;;;;5069513;28;20140;-75
2023/10/27 00:24:47;;;;;;;33.80;17.17;;;;;;;;;;5095650;28;20039;-74
2023/10/27 00:27:12;;;;;;;35.92;17.35;;;;;;;;;;5100019;28;20043;-76
2023/10/27 00:29:38;;;;;;;30.15;16.88;;;;;;;;;;5111914;28;20341;-75
2023/10/27 00:32:04;;;;;;;32.92;17.15;;;;;;;;;;5105558;28;20068;-74
2023/10/27 00:34:29;;;;;;;32.22;16.67;;;;;;;;;;5107987;28;20093;-74
2023/10/27 00:36:55;;;;;;;30.42;17.08;;;;;;;;;;5090125;28;20106;-76
2023/10/27 00:39:20;;;;;;;33.15;16.33;;;;;;;;;;5060725;28;20036;-76
2023/10/27 00:41:46;;;;;;;28.45;16.42;;;;;;;;;;5090681;28;20028;-75
2023/10/27 00:44:11;;;;;;;30.63;16.75;;;;;;;;;;5089862;28;20373;-77
2023/10/27 00:46:37;;;;;;;31.45;16.95;;;;;;;;;;5103398;28;20038;-75
2023/10/27 00:49:03;;;;;;;30.30;16.88;;;;;;;;;;5091938;28;20036;-75
2023/10/27 00:51:28;;;;;;;29.60;16.58;;;;;;;;;;5091211;28;20357;-77
2023/10/27 00:53:54;;;;;;;30.80;16.50;;;;;;;;;;5090560;28;20430;-73
2023/10/27 00:56:21;;;;;;;33.10;16.40;;;;;;;;;;5096963;28;20032;-75
2023/10/27 00:58:47;;;;;;;33.40;17.00;;;;;;;;;;5102701;28;20028;-75
2023/10/27 01:01:17;;;;;;;30.55;16.65;;;;;;;;;;5092011;28;20107;-74
2023/10/27 01:03:43;;;;;;;33.30;15.70;;;;;;;;;;5091538;28;20035;-75
2023/10/27 01:06:08;;;;;;;29.67;15.90;;;;;;;;;;5087869;28;20032;-74
2023/10/27 01:08:34;;;;;;;34.97;17.05;;;;;;;;;;5093232;28;20482;-75
2023/10/27 01:11:00;;;;;;;32.15;16.27;;;;;;;;;;5082070;28;20453;-75
2023/10/27 01:13:25;;;;;;;31.13;15.95;;;;;;;;;;5077734;28;20030;-75
2023/10/27 01:15:50;;;;;;;29.67;15.98;;;;;;;;;;5105931;28;20111;-75
2023/10/27 01:18:16;;;;;;;34.00;17.13;;;;;;;;;;5099826;28;20024;-75
2023/10/27 01:20:41;;;;;;;30.60;16.15;;;;;;;;;;5094884;28;20066;-75
2023/10/27 01:23:07;;;;;;;30.70;15.60;;;;;;;;;;5104007;28;20076;-72
2023/10/27 01:25:32;;;;;;;31.83;16.20;;;;;;;;;;5094961;28;20052;-76
2023/10/27 01:27:58;;;;;;;32.17;15.43;;;;;;;;;;5075286;28;20111;-73
2023/10/27 01:30:24;;;;;;;32.50;15.55;;;;;;;;;;5076705;28;20028;-73
2023/10/27 01:32:49;;;;;;;30.90;15.55;;;;;;;;;;5093277;28;20040;-73
2023/10/27 01:35:15;;;;;;;34.45;16.73;;;;;;;;;;5108731;28;20495;-72
2023/10/27 01:37:41;;;;;;;41.28;18.10;;;;;;;;;;5093329;28;20039;-75
2023/10/27 01:40:07;;;;;;;33.50;16.90;;;;;;;;;;5106116;28;20490;-75
2023/10/27 01:42:34;;;;;;;33.35;16.65;;;;;;;;;;5094583;28;20465;-74
2023/10/27 01:45:03;;;;;;;31.58;15.73;;;;;;;;;;5092822;28;20036;-75
2023/10/27 01:47:29;;;;;;;32.08;16.23;;;;;;;;;;5094043;28;20043;-76
2023/10/27 01:49:55;;;;;;;31.30;16.55;;;;;;;;;;5093114;28;20115;-73
2023/10/27 01:52:20;;;;;;;32.38;16.77;;;;;;;;;;5092402;28;20529;-75
2023/10/27 01:54:46;;;;;;;28.17;15.80;;;;;;;;;;5095764;28;20031;-75
2023/10/27 01:57:11;;;;;;;32.63;15.63;;;;;;;;;;5093254;28;20415;-75
2023/10/27 01:59:37;;;;;;;34.03;16.15;;;;;;;;;;5093043;28;20032;-75
2023/10/27 02:02:02;;;;;;;30.08;14.93;;;;;;;;;;5074512;28;20028;-75
2023/10/27 02:04:27;;;;;;;29.65;14.90;;;;;;;;;;5093618;28;20036;-75
2023/10/27 02:06:54;;;;;;;27.45;14.13;;;;;;;;;;5094634;28;20039;-75
2023/10/27 02:09:20;;;;;;;32.47;14.65;;;;;;;;;;5094868;28;20028;-75
2023/10/27 02:11:46;;;;;;;28.00;14.50;;;;;;;;;;5083154;28;20044;-75
2023/10/27 02:14:12;;;;;;;30.50;14.40;;;;;;;;;;5099610;28;20032;-75
2023/10/27 02:16:37;;;;;;;27.55;14.80;;;;;;;;;;5111411;28;20379;-75
2023/10/27 02:19:03;;;;;;;30.00;14.20;;;;;;;;;;5102650;28;20433;-75
2023/10/27 02:21:28;;;;;;;25.50;14.68;;;;;;;;;;5096959;28;20032;-75
2023/10/27 02:23:54;;;;;;;29.13;14.75;;;;;;;;;;5092674;28;20994;-75
2023/10/27 02:26:19;;;;;;;27.73;14.02;;;;;;;;;;5098755;28;20468;-75
2023/10/27 02:28:45;;;;;;;28.67;13.43;;;;;;;;;;5112118;28;20432;-75
2023/10/27 02:31:10;;;;;;;30.67;13.95;;;;;;;;;;5085093;28;20129;-74
2023/10/27 02:33:36;;;;;;;23.48;13.52;;;;;;;;;;5093482;28;20047;-74
2023/10/27 02:36:02;;;;;;;28.80;14.07;;;;;;;;;;5072399;28;20492;-74
2023/10/27 02:38:27;;;;;;;21.67;13.10;;;;;;;;;;5093173;28;20536;-75
2023/10/27 02:40:53;;;;;;;25.45;13.15;;;;;;;;;;5106248;28;20035;-75
2023/10/27 02:43:19;;;;;;;22.33;12.93;;;;;;;;;;5094313;28;20042;-74
2023/10/27 02:45:44;;;;;;;25.10;13.45;;;;;;;;;;5100300;28;20391;-75
2023/10/27 02:48:10;;;;;;;25.13;13.02;;;;;;;;;;5082503;28;20036;-74
2023/10/27 02:50:35;;;;;;;25.20;12.75;;;;;;;;;;5112096;28;20032;-74
2023/10/27 02:53:01;;;;;;;25.52;13.15;;;;;;;;;;5113142;28;20023;-73
2023/10/27 02:55:26;;;;;;;27.83;13.27;;;;;;;;;;5096585;28;20032;-74
2023/10/27 02:57:51;;;;;;;26.55;13.18;;;;;;;;;;5092317;28;20024;-74
2023/10/27 03:00:19;;;;;;;22.42;12.75;;;;;;;;;;5073606;28;20040;-75
2023/10/27 03:02:44;;;;;;;21.48;12.70;;;;;;;;;;5095891;28;20028;-74
2023/10/27 03:05:10;;;;;;;20.42;12.30;;;;;;;;;;5056227;28;20047;-74
2023/10/27 03:07:35;;;;;;;23.08;12.32;;;;;;;;;;5100054;28;20032;-74
2023/10/27 03:10:01;;;;;;;23.73;12.45;;;;;;;;;;5091113;28;20542;-73
2023/10/27 03:12:26;;;;;;;21.40;11.95;;;;;;;;;;5086621;28;20490;-75
2023/10/27 03:14:52;;;;;;;21.85;12.18;;;;;;;;;;5076844;28;20034;-75
2023/10/27 03:17:17;;;;;;;20.15;11.90;;;;;;;;;;5081667;28;20476;-74
2023/10/27 03:19:43;;;;;;;21.80;12.45;;;;;;;;;;5102017;28;20031;-75
2023/10/27 03:22:08;;;;;;;23.58;12.32;;;;;;;;;;5090558;28;20039;-74
2023/10/27 03:24:33;;;;;;;24.40;12.63;;;;;;;;;;5081107;28;20085;-74
2023/10/27 03:26:59;;;;;;;21.73;12.50;;;;;;;;;;5112995;28;20418;-75
2023/10/27 03:29:24;;;;;;;21.75;11.70;;;;;;;;;;5093470;28;20025;-75
2023/10/27 03:31:50;;;;;;;24.15;12.68;;;;;;;;;;5110831;28;20031;-75
2023/10/27 03:34:16;;;;;;;24.08;12.80;;;;;;;;;;5101095;28;20419;-75
2023/10/27 03:36:41;;;;;;;23.08;12.00;;;;;;;;;;5096678;28;20065;-75
2023/10/27 03:39:07;;;;;;;20.23;11.85;;;;;;;;;;5093203;28;20020;-78
2023/10/27 03:41:32;;;;;;;21.23;11.45;;;;;;;;;;5087929;28;20139;-77
2023/10/27 03:43:58;;;;;;;22.55;11.65;;;;;;;;;;5073485;28;20051;-77
2023/10/27 03:46:23;;;;;;;23.50;11.65;;;;;;;;;;5101751;28;20092;-77
2023/10/27 03:48:49;;;;;;;21.52;11.38;;;;;;;;;;5093559;28;20036;-78
2023/10/27 03:51:15;;;;;;;22.33;12.05;;;;;;;;;;5092182;28;20020;-77
2023/10/27 03:53:41;;;;;;;21.92;11.13;;;;;;;;;;5084335;28;20080;-77
2023/10/27 03:56:07;;;;;;;21.10;11.52;;;;;;;;;;5093305;28;20032;-77
2023/10/27 03:58:32;;;;;;;20.88;11.70;;;;;;;;;;5092953;28;20132;-77
2023/10/27 04:00:58;;;;;;;21.35;11.82;;;;;;;;;;5081826;28;20488;-78
2023/10/27 04:03:23;;;;;;;22.27;12.25;;;;;;;;;;5085555;28;20107;-78
2023/10/27 04:05:48;;;;;;;25.83;13.40;;;;;;;;;;5113249;28;20024;-77
2023/10/27 04:08:14;;;;;;;20.55;12.02;;;;;;;;;;5093581;28;20032;-77
2023/10/27 04:10:40;;;;;;;25.77;12.65;;;;;;;;;;5076787;28;20088;-77
2023/10/27 04:13:07;;;;;;;21.45;12.05;;;;;;;;;;5103631;28;20062;-77
2023/10/27 04:15:33;;;;;;;21.25;11.90;;;;;;;;;;5091206;28;20097;-77
2023/10/27 04:18:00;;;;;;;21.92;12.00;;;;;;;;;;5108997;28;20054;-78
2023/10/27 04:20:25;;;;;;;24.65;12.63;;;;;;;;;;5111912;28;20625;-78
2023/10/27 04:22:50;;;;;;;22.42;12.98;;;;;;;;;;5105046;28;20031;-76
2023/10/27 04:25:16;;;;;;;23.65;12.63;;;;;;;;;;5092862;28;20423;-74
2023/10/27 04:27:41;;;;;;;28.58;12.85;;;;;;;;;;5093693;28;20461;-74
2023/10/27 04:30:08;;;;;;;24.65;13.48;;;;;;;;;;5096373;28;20024;-73
2023/10/27 04:32:40;;;;;;;25.52;12.70;;;;;;;;;;5076441;28;20400;-75
2023/10/27 04:35:05;;;;;;;27.35;12.85;;;;;;;;;;5092374;28;20024;-73
2023/10/27 04:37:32;;;;;;;25.25;12.75;;;;;;;;;;5095512;28;20047;-74
2023/10/27 04:39:58;;;;;;;25.00;13.05;;;;;;;;;;5112278;28;20027;-74
2023/10/27 04:42:24;;;;;;;28.75;13.93;;;;;;;;;;5098981;28;20092;-74
2023/10/27 04:44:49;;;;;;;25.00;13.70;;;;;;;;;;5090830;28;20036;-75
2023/10/27 04:47:15;;;;;;;28.27;13.90;;;;;;;;;;5089352;28;20150;-75
2023/10/27 04:49:40;;;;;;;28.77;13.60;;;;;;;;;;5090825;28;20028;-76
2023/10/27 04:52:05;;;;;;;27.08;14.98;;;;;;;;;;5091614;28;20092;-71
2023/10/27 04:54:31;;;;;;;27.02;14.07;;;;;;;;;;5094612;28;20048;-75
2023/10/27 04:56:57;;;;;;;27.20;13.90;;;;;;;;;;5076448;28;20028;-75
2023/10/27 04:59:22;;;;;;;32.03;15.60;;;;;;;;;;5094701;28;20043;-75
2023/10/27 05:01:47;;;;;;;29.85;14.38;;;;;;;;;;5097097;28;20110;-75
2023/10/27 05:04:13;;;;;;;28.42;14.55;;;;;;;;;;5101222;28;20039;-75
2023/10/27 05:06:38;;;;;;;29.20;15.18;;;;;;;;;;5112127;28;20024;-76
2023/10/27 05:09:04;;;;;;;33.67;15.30;;;;;;;;;;5111694;28;20028;-75
2023/10/27 05:11:29;;;;;;;27.08;14.85;;;;;;;;;;5092725;28;20122;-75
2023/10/27 05:13:54;;;;;;;31.33;14.63;;;;;;;;;;5094637;28;20422;-73
2023/10/27 05:16:20;;;;;;;32.28;14.93;;;;;;;;;;5093502;28;20073;-76
2023/10/27 05:18:45;;;;;;;31.02;14.57;;;;;;;;;;5097865;28;20023;-77
2023/10/27 05:21:17;;;;;;;33.67;15.40;;;;;;;;;;5088073;28;20027;-75
2023/10/27 05:23:43;;;;;;;32.75;15.85;;;;;;;;;;5116058;28;20444;-77
2023/10/27 05:26:08;;;;;;;32.92;15.88;;;;;;;;;;5096616;28;20032;-72
2023/10/27 05:28:34;;;;;;;30.48;15.35;;;;;;;;;;5096295;28;20030;-77
2023/10/27 05:30:59;;;;;;;30.48;15.90;;;;;;;;;;5095207;28;20027;-76
2023/10/27 05:33:24;;;;;;;33.05;16.30;;;;;;;;;;5093379;28;20035;-77
2023/10/27 05:35:50;;;;;;;40.78;17.73;;;;;;;;;;5094238;28;20469;-76
2023/10/27 05:38:15;;;;;;;36.30;16.35;;;;;;;;;;5104510;28;20110;-76
2023/10/27 05:40:41;;;;;;;38.05;16.52;;;;;;;;;;5115448;28;20067;-76
2023/10/27 05:43:07;;;;;;;37.13;16.27;;;;;;;;;;5111347;28;20031;-75
2023/10/27 05:45:33;;;;;;;34.10;16.42;;;;;;;;;;5114286;28;20456;-76
2023/10/27 05:47:58;;;;;;;35.05;16.52;;;;;;;;;;5097591;28;20028;-76
2023/10/27 05:50:23;;;;;;;37.47;17.20;;;;;;;;;;5091346;28;20491;-76
2023/10/27 05:52:49;;;;;;;38.88;17.17;;;;;;;;;;5093969;28;20028;-76
2023/10/27 05:55:14;;;;;;;40.22;17.13;;;;;;;;;;5092871;28;20115;-75
2023/10/27 05:57:41;;;;;;;38.20;16.27;;;;;;;;;;5093973;28;20032;-76
2023/10/27 06:00:07;;;;;;;38.60;16.85;;;;;;;;;;5076367;28;20032;-76
2023/10/27 06:02:33;;;;;;;39.75;16.30;;;;;;;;;;5094351;28;20035;-76
2023/10/27 06:04:58;;;;;;;34.00;15.43;;;;;;;;;;5093273;28;20389;-76
2023/10/27 06:07:24;;;;;;;32.92;15.13;;;;;;;;;;5092604;28;20063;-75
2023/10/27 06:09:49;;;;;;;36.00;15.95;;;;;;;;;;5093023;28;20031;-75
2023/10/27 06:12:15;;;;;;;37.00;15.10;;;;;;;;;;5090223;28;20039;-75
2023/10/27 06:14:44;;;;;;;39.17;15.10;;;;;;;;;;5094682;28;20024;-75
2023/10/27 06:17:11;;;;;;;34.30;15.23;;;;;;;;;;5082569;28;20027;-70
2023/10/27 06:19:37;;;;;;;31.98;14.93;;;;;;;;;;5087051;28;20116;-72
2023/10/27 06:22:03;;;;;;;33.05;14.80;;;;;;;;;;5074470;28;20127;-72
2023/10/27 06:24:29;;;;;;;36.58;17.20;;;;;;;;;;5093656;28;20055;-71
2023/10/27 06:26:54;;;;;;;32.13;15.27;;;;;;;;;;5084319;28;20028;-72
2023/10/27 06:29:21;;;;;;;34.45;15.77;;;;;;;;;;5113458;28;20119;-70
2023/10/27 06:31:47;;;;;;;32.58;15.02;;;;;;;;;;5084676;28;20042;-72
2023/10/27 06:34:12;;;;;;;31.17;14.90;;;;;;;;;;5074649;28;20028;-70
2023/10/27 06:36:38;;;;;;;39.22;15.80;;;;;;;;;;5096766;28;20040;-72
2023/10/27 06:39:03;;;;;;;39.50;15.27;;;;;;;;;;5109731;28;21171;-72
2023/10/27 06:41:29;;;;;;;40.92;16.35;;;;;;;;;;5073781;28;20038;-72
2023/10/27 06:43:54;;;;;;;35.30;16.27;;;;;;;;;;5092636;28;20028;-73
2023/10/27 06:46:19;;;;;;;37.83;15.10;;;;;;;;;;5095643;28;20019;-72
2023/10/27 06:48:45;;;;;;;33.63;15.00;;;;;;;;;;5108495;28;20059;-74
2023/10/27 06:51:10;;;;;;;33.40;15.10;;;;;;;;;;5107480;28;20422;-73
2023/10/27 06:53:36;;;;;;;34.60;14.77;;;;;;;;;;5073519;28;20071;-74
2023/10/27 06:56:01;;;;;;;33.25;14.52;;;;;;;;;;5072885;28;20366;-72
2023/10/27 06:58:27;;;;;;;36.13;14.40;;;;;;;;;;5074345;28;20024;-72
2023/10/27 07:00:52;;;;;;;31.13;14.60;;;;;;;;;;5093311;28;20043;-72
2023/10/27 07:03:18;;;;;;;31.83;15.10;;;;;;;;;;5094400;28;20054;-72
2023/10/27 07:05:44;;;;;;;31.00;14.48;;;;;;;;;;5092820;28;20036;-73
2023/10/27 07:08:09;;;;;;;38.53;15.95;;;;;;;;;;5073428;28;20177;-72
2023/10/27 07:10:35;;;;;;;32.60;14.88;;;;;;;;;;5071733;28;20119;-73
2023/10/27 07:13:01;;;;;;;41.63;15.02;;;;;;;;;;5074153;28;20024;-73
2023/10/27 07:15:26;;;;;;;31.30;14.82;;;;;;;;;;5091350;28;20464;-73
2023/10/27 07:17:51;;;;;;;37.78;14.73;;;;;;;;;;5091693;28;20028;-72
2023/10/27 07:20:17;;;;;;;36.40;14.60;;;;;;;;;;5073823;28;20039;-70
2023/10/27 07:22:43;;;;;;;31.85;14.30;;;;;;;;;;5100681;28;20396;-72
2023/10/27 07:25:08;;;;;;;32.13;14.48;;;;;;;;;;5092280;28;20063;-72
2023/10/27 07:27:34;;;;;;;39.75;15.85;;;;;;;;;;5072806;28;20048;-72
2023/10/27 07:29:59;;;;;;;33.10;14.95;;;;;;;;;;5073652;28;20053;-73
2023/10/27 07:32:25;;;;;;;33.33;14.88;;;;;;;;;;5091598;28;20469;-75
2023/10/27 07:34:50;;;;;;;31.98;14.45;;;;;;;;;;5107817;28;20042;-75
2023/10/27 07:37:18;;;;;;;31.10;15.15;;;;;;;;;;5093564;28;20484;-70
2023/10/27 07:39:44;;;;;;;31.50;14.30;;;;;;;;;;5092964;28;20126;-74
2023/10/27 07:42:09;;;;;;;30.65;14.25;;;;;;;;;;5090685;28;20997;-73
2023/10/27 07:44:35;;;;;;;30.40;14.23;;;;;;;;;;5073099;28;20120;-74
2023/10/27 07:47:00;;;;;;;32.85;14.88;;;;;;;;;;5069983;28;20028;-73
2023/10/27 07:49:26;;;;;;;27.60;13.85;;;;;;;;;;5072689;28;20122;-71
2023/10/27 07:51:51;;;;;;;39.47;15.02;;;;;;;;;;5073098;28;20066;-75
2023/10/27 07:54:17;;;;;;;32.78;14.02;;;;;;;;;;5094548;28;20032;-69
2023/10/27 07:56:42;;;;;;;32.58;14.07;;;;;;;;;;5091661;28;20071;-74
2023/10/27 07:59:08;;;;;;;34.85;14.70;;;;;;;;;;5091467;28;20514;-74
2023/10/27 08:01:34;;;;;;;31.40;14.90;;;;;;;;;;5090458;28;20486;-74
2023/10/27 08:03:59;;;;;;;29.67;13.88;;;;;;;;;;5095589;28;20043;-74
2023/10/27 08:06:25;;;;;;;32.42;13.65;;;;;;;;;;5092070;28;20375;-73
2023/10/27 08:08:50;;;;;;;32.55;14.15;;;;;;;;;;5106061;28;20031;-72
2023/10/27 08:11:19;;;;;;;30.35;13.70;;;;;;;;;;5091141;28;20366;-74
2023/10/27 08:13:44;;;;;;;26.30;12.93;;;;;;;;;;5103505;28;20065;-74
2023/10/27 08:16:10;;;;;;;29.75;13.70;;;;;;;;;;5092225;28;20055;-74
2023/10/27 08:18:36;;;;;;;32.05;13.23;;;;;;;;;;5076801;28;20023;-74
2023/10/27 08:21:02;;;;;;;32.80;13.45;;;;;;;;;;5078724;28;20039;-74
2023/10/27 08:23:28;;;;;;;32.35;13.73;;;;;;;;;;5090882;28;20081;-74
2023/10/27 08:25:53;;;;;;;27.52;12.43;;;;;;;;;;5074232;28;20434;-73
2023/10/27 08:28:20;;;;;;;28.42;12.90;;;;;;;;;;5090873;28;20024;-70
2023/10/27 08:30:46;;;;;;;28.92;12.80;;;;;;;;;;5091372;28;20029;-76
2023/10/27 08:33:12;;;;;;;28.98;13.30;;;;;;;;;;5091463;28;20081;-76
2023/10/27 08:35:37;;;;;;;32.15;12.32;;;;;;;;;;5108790;28;20092;-77
2023/10/27 08:38:02;;;;;;;30.30;12.75;;;;;;;;;;5108552;28;20032;-75
2023/10/27 08:40:28;;;;;;;26.77;12.02;;;;;;;;;;5109213;28;20028;-73
2023/10/27 08:42:55;;;;;;;26.27;12.25;;;;;;;;;;5091002;28;20531;-74
2023/10/27 08:45:22;;;;;;;30.23;12.13;;;;;;;;;;5087863;28;20028;-70
2023/10/27 08:47:48;;;;;;;29.33;12.57;;;;;;;;;;5092362;28;20392;-75
2023/10/27 08:50:14;;;;;;;27.10;11.80;;;;;;;;;;5090708;28;20042;-71
2023/10/27 08:52:42;;;;;;;29.17;11.82;;;;;;;;;;5107545;28;20054;-75
2023/10/27 08:55:09;;;;;;;24.98;11.20;;;;;;;;;;5097702;28;20035;-74
2023/10/27 08:57:35;;;;;;;29.73;10.73;;;;;;;;;;5101578;28;20059;-74
2023/10/27 09:00:02;;;;;;;22.48;11.15;;;;;;;;;;5092794;28;20059;-75
2023/10/27 09:02:30;;;;;;;23.98;10.85;;;;;;;;;;5089142;28;20538;-74
2023/10/27 09:05:04;;;;;;;22.90;10.20;;;;;;;;;;5073040;28;20028;-74
2023/10/27 09:07:33;;;;;;;23.23;10.77;;;;;;;;;;5093539;28;20035;-74
2023/10/27 09:09:59;;;;;;;23.85;10.18;;;;;;;;;;5091766;28;20028;-75
2023/10/27 09:12:30;;;;;;;24.38;10.70;;;;;;;;;;5097902;28;20096;-74
2023/10/27 09:14:59;;;;;;;;;;;;;;;;;;5112155;28;20024;-75
2023/10/27 09:17:25;;;;;;;20.60;9.77;;;;;;;;;;5110505;28;20346;-73
2023/10/27 09:20:09;;;;;;;19.25;9.13;;;;;;;;;;5111148;28;20480;-73
2023/10/27 09:22:36;;;;;;;24.17;9.30;;;;;;;;;;5110771;28;20118;-73
2023/10/27 09:25:19;;;;;;;22.50;9.05;;;;;;;;;;5100937;28;20047;-73
2023/10/27 09:27:45;;;;;;;18.83;8.98;;;;;;;;;;5072212;28;20955;-73
2023/10/27 09:30:44;;;;;;;20.73;8.90;;;;;;;;;;5072851;28;20036;-74
2023/10/27 09:33:13;;;;;;;20.27;9.05;;;;;;;;;;5090343;28;20040;-74
2023/10/27 09:35:43;;;;;;;13.65;8.50;;;;;;;;;;5090136;28;20032;-75
2023/10/27 09:38:08;;;;;;;20.88;9.73;;;;;;;;;;5091314;28;20383;-73
2023/10/27 09:40:37;;;;;;;19.02;9.80;;;;;;;;;;5074510;28;20040;-74
2023/10/27 09:43:04;;;;;;;21.52;9.63;;;;;;;;;;5095278;28;20059;-74
2023/10/27 09:45:33;;;;;;;23.15;10.05;;;;;;;;;;5093594;28;20070;-74
2023/10/27 09:48:03;;;;;;;20.67;8.75;;;;;;;;;;5094647;28;20032;-73
2023/10/27 09:50:32;;;;;;;18.25;8.57;;;;;;;;;;5098534;28;20057;-73
2023/10/27 09:53:01;;;;;;;18.25;9.20;;;;;;;;;;5095318;28;20024;-74
2023/10/27 09:55:27;;;;;;;17.52;8.02;;;;;;;;;;5093570;28;20072;-70
2023/10/27 09:57:53;;;;;;;17.20;8.55;;;;;;;;;;5076410;28;20028;-74
2023/10/27 10:00:22;;;;;;;18.85;8.10;;;;;;;;;;5095107;28;20430;-74
2023/10/27 10:02:48;;;;;;;16.98;8.23;;;;;;;;;;5093572;28;20032;-74
2023/10/27 10:05:14;;;;;;;18.50;7.68;;;;;;;;;;5094890;28;20495;-74
2023/10/27 10:07:55;;;;;;;17.58;8.07;;;;;;;;;;5068580;28;20032;-74
2023/10/27 10:10:34;;;;;;;18.05;8.13;;;;;;;;;;5114622;28;20376;-74
2023/10/27 10:13:12;;;;;;;17.70;7.78;;;;;;;;;;5111671;28;20438;-71
2023/10/27 10:15:39;;;;;;;12.40;6.90;;;;;;;;;;5091404;28;20027;-71
2023/10/27 10:18:28;;;;;;;15.35;6.88;;;;;;;;;;5092498;28;20082;-72
2023/10/27 10:20:57;;;;;;;12.23;6.45;;;;;;;;;;5093150;28;20040;-69
2023/10/27 10:23:40;;;;;;;12.27;6.03;;;;;;;;;;5076532;28;20032;-70
2023/10/27 10:26:05;;;;;;;9.80;5.45;;;;;;;;;;5091726;28;20028;-71
2023/10/27 10:28:36;;;;;;;12.00;5.32;;;;;;;;;;5092016;28;20032;-72
2023/10/27 10:31:10;;;;;;;9.95;5.03;;;;;;;;;;5093547;28;20074;-73
2023/10/27 10:33:37;;;;;;;8.88;4.65;;;;;;;;;;5096893;28;20028;-73
2023/10/27 10:36:18;;;;;;;9.98;5.30;;;;;;;;;;5111614;28;20085;-73
2023/10/27 10:39:04;;;;;;;10.43;5.10;;;;;;;;;;5109214;28;20042;-73
2023/10/27 10:41:44;;;;;;;9.68;5.65;;;;;;;;;;5076792;28;20074;-70
2023/10/27 10:44:12;;;;;;;10.32;5.90;;;;;;;;;;5092840;28;20070;-72
2023/10/27 10:46:37;;;;;;;11.63;5.90;;;;;;;;;;5092256;28;20492;-72
2023/10/27 10:49:03;;;;;;;9.88;6.07;;;;;;;;;;5075404;28;20032;-73
2023/10/27 10:51:36;;;;;;;10.63;6.18;;;;;;;;;;5096012;28;20020;-70
2023/10/27 10:54:02;;;;;;;9.85;5.85;;;;;;;;;;5103163;28;20133;-74
2023/10/27 10:56:28;;;;;;;14.07;6.65;;;;;;;;;;5093758;28;20070;-71
2023/10/27 10:58:54;;;;;;;11.85;6.15;;;;;;;;;;5092394;28;20036;-75
2023/10/27 11:01:23;;;;;;;12.32;6.93;;;;;;;;;;5093392;28;20032;-75
2023/10/27 11:03:54;;;;;;;12.85;6.18;;;;;;;;;;5091346;28;20066;-74
2023/10/27 11:06:20;;;;;;;;;;;;;;;;;;5093634;28;20101;-73
2023/10/27 11:08:46;;;;;;;10.02;6.75;;;;;;;;;;5091528;28;19926;-73
2023/10/27 11:11:13;;;;;;;11.18;7.22;;;;;;;;;;5092727;28;20020;-72
2023/10/27 11:13:51;;;;;;;11.52;7.22;;;;;;;;;;5091556;28;20024;-70
2023/10/27 11:16:21;;;;;;;12.77;7.75;;;;;;;;;;5092851;28;20028;-74
2023/10/27 11:18:57;;;;;;;13.77;8.18;;;;;;;;;;5091372;28;20032;-72
2023/10/27 11:21:24;;;;;;;12.90;8.40;;;;;;;;;;5092780;28;20028;-71
2023/10/27 11:23:51;;;;;;;14.68;8.00;;;;;;;;;;5091933;28;20048;-71
2023/10/27 11:26:20;;;;;;;11.77;7.10;;;;;;;;;;5092286;28;20039;-74
2023/10/27 11:28:47;;;;;;;14.48;7.68;;;;;;;;;;5091762;28;20032;-72
2023/10/27 11:31:21;;;;;;;13.32;8.25;;;;;;;;;;5092562;28;20058;-72
2023/10/27 11:34:01;;;;;;;14.68;8.13;;;;;;;;;;5091512;28;20028;-71
2023/10/27 11:36:40;;;;;;;13.13;8.05;;;;;;;;;;5092809;28;20052;-72
2023/10/27 11:39:17;;;;;;;13.93;7.75;;;;;;;;;;5075076;28;20598;-73
2023/10/27 11:41:43;;;;;;;16.83;8.10;;;;;;;;;;5092305;28;20036;-73
2023/10/27 11:44:08;;;;;;;14.23;8.30;;;;;;;;;;5112483;28;20024;-73
2023/10/27 11:46:34;;;;;;;14.32;8.20;;;;;;;;;;5111770;28;20421;-72
2023/10/27 11:49:00;;;;;;;14.45;8.48;;;;;;;;;;5094627;28;20067;-73
2023/10/27 11:51:26;;;;;;;16.15;8.63;;;;;;;;;;5112654;28;20055;-74
2023/10/27 11:53:51;;;;;;;12.30;7.50;;;;;;;;;;5093255;28;20024;-74
2023/10/27 11:56:17;;;;;;;14.80;8.27;;;;;;;;;;5112456;28;20126;-75
2023/10/27 11:58:46;;;;;;;10.18;6.50;;;;;;;;;;5110618;28;20085;-75
2023/10/27 12:01:11;;;;;;;14.15;7.50;;;;;;;;;;5112508;28;20032;-74
2023/10/27 12:03:36;;;;;;;11.65;7.90;;;;;;;;;;5110841;28;20028;-74
2023/10/27 12:06:02;;;;;;;10.45;6.55;;;;;;;;;;5112446;28;20497;-74
2023/10/27 12:08:28;;;;;;;10.43;7.20;;;;;;;;;;5112357;28;20033;-75
2023/10/27 12:10:56;;;;;;;11.15;7.10;;;;;;;;;;5093144;28;20879;-75
2023/10/27 12:13:23;;;;;;;11.15;7.18;;;;;;;;;;5112323;28;20052;-75
2023/10/27 12:15:49;;;;;;;12.73;7.25;;;;;;;;;;5110643;28;20034;-74
2023/10/27 12:18:15;;;;;;;12.55;7.20;;;;;;;;;;5093813;28;20028;-74
2023/10/27 12:20:42;;;;;;;8.77;5.32;;;;;;;;;;5090812;28;20035;-74
2023/10/27 12:23:08;;;;;;;10.77;7.45;;;;;;;;;;5073216;28;20020;-75
2023/10/27 12:25:37;;;;;;;12.68;7.35;;;;;;;;;;5090827;28;20185;-71
2023/10/27 12:28:03;;;;;;;12.90;7.35;;;;;;;;;;5093032;28;20141;-77
2023/10/27 12:30:30;;;;;;;13.48;7.68;;;;;;;;;;5098187;28;20114;-77
2023/10/27 12:32:59;;;;;;;12.93;7.43;;;;;;;;;;5108604;28;20204;-77
2023/10/27 12:35:28;;;;;;;13.77;8.10;;;;;;;;;;5091726;28;20579;-77
2023/10/27 12:37:53;;;;;;;12.50;7.13;;;;;;;;;;5081427;28;20110;-78
2023/10/27 12:40:19;;;;;;;13.60;7.68;;;;;;;;;;5112646;28;20059;-76
2023/10/27 12:42:45;;;;;;;13.38;8.07;;;;;;;;;;5078813;28;20416;-76
2023/10/27 12:45:13;;;;;;;13.65;7.57;;;;;;;;;;5091964;28;20051;-77
2023/10/27 12:47:41;;;;;;;16.60;9.20;;;;;;;;;;5090819;28;20073;-77
2023/10/27 12:50:10;;;;;;;13.82;8.88;;;;;;;;;;5092041;28;20037;-78
2023/10/27 12:52:40;;;;;;;17.25;8.82;;;;;;;;;;5073092;28;20072;-74
2023/10/27 12:55:07;;;;;;;15.13;9.23;;;;;;;;;;5106805;28;20077;-78
2023/10/27 12:57:32;;;;;;;14.13;8.63;;;;;;;;;;5111931;28;20065;-78
2023/10/27 12:59:58;;;;;;;14.45;8.18;;;;;;;;;;5111001;28;20027;-79
2023/10/27 13:02:23;;;;;;;13.35;8.32;;;;;;;;;;5112011;28;20189;-78
2023/10/27 13:04:52;;;;;;;16.52;8.82;;;;;;;;;;5092781;28;20080;-78
2023/10/27 13:07:18;;;;;;;15.25;8.55;;;;;;;;;;5110821;28;20031;-78
2023/10/27 13:09:44;;;;;;;12.70;8.25;;;;;;;;;;5111045;28;20035;-78
2023/10/27 13:12:10;;;;;;;8.32;5.18;;;;;;;;;;5111756;28;20032;-78
2023/10/27 13:14:39;;;;;;;11.02;6.20;;;;;;;;;;5113429;28;20035;-74
2023/10/27 13:17:09;;;;;;;9.18;5.82;;;;;;;;;;5115595;28;20027;-78
2023/10/27 13:19:35;;;;;;;9.93;5.78;;;;;;;;;;5115543;28;20369;-75
2023/10/27 13:22:01;;;;;;;8.52;5.47;;;;;;;;;;5115238;28;20054;-77
2023/10/27 13:24:26;;;;;;;9.23;4.88;;;;;;;;;;5099565;28;20127;-78
2023/10/27 13:26:54;;;;;;;8.77;3.58;;;;;;;;;;5125327;28;20384;-77
2023/10/27 13:29:20;;;;;;;8.48;3.53;;;;;;;;;;5115348;28;20054;-76
2023/10/27 13:31:45;;;;;;;6.03;3.30;;;;;;;;;;5098085;28;20457;-76
2023/10/27 13:34:13;;;;;;;6.03;3.75;;;;;;;;;;5095026;28;20024;-76
2023/10/27 13:36:42;;;;;;;7.28;4.13;;;;;;;;;;5093820;28;20020;-72
2023/10/27 13:39:08;;;;;;;8.15;4.63;;;;;;;;;;5096095;28;20039;-77
2023/10/27 13:41:36;;;;;;;9.93;4.90;;;;;;;;;;5104320;28;20031;-78
2023/10/27 13:44:07;;;;;;;9.20;5.18;;;;;;;;;;5114741;28;20020;-77
2023/10/27 13:46:33;;;;;;;9.18;5.03;;;;;;;;;;5099653;28;20032;-78
2023/10/27 13:48:59;;;;;;;9.88;5.70;;;;;;;;;;5093663;28;20032;-76
2023/10/27 13:51:24;;;;;;;11.48;6.20;;;;;;;;;;5094635;28;20055;-78
2023/10/27 13:53:51;;;;;;;9.88;5.85;;;;;;;;;;5093783;28;20032;-76
2023/10/27 13:56:16;;;;;;;14.40;7.25;;;;;;;;;;5094643;28;20106;-76
2023/10/27 13:58:44;;;;;;;11.38;6.80;;;;;;;;;;5108429;28;20070;-74
2023/10/27 14:01:09;;;;;;;13.93;7.57;;;;;;;;;;5114799;28;20074;-76
2023/10/27 14:03:35;;;;;;;14.32;7.20;;;;;;;;;;5114808;28;20062;-76
2023/10/27 14:06:02;;;;;;;13.15;7.32;;;;;;;;;;5114285;28;20046;-76
2023/10/27 14:08:27;;;;;;;13.90;7.65;;;;;;;;;;5114580;28;20031;-76
2023/10/27 14:10:53;;;;;;;13.55;7.55;;;;;;;;;;5095374;28;20020;-74
2023/10/27 14:13:21;;;;;;;15.32;7.57;;;;;;;;;;5114419;28;20127;-74
2023/10/27 14:15:49;;;;;;;16.17;7.55;;;;;;;;;;5094065;28;20047;-72
2023/10/27 14:18:15;;;;;;;14.90;7.88;;;;;;;;;;5114636;28;20118;-75
2023/10/27 14:20:42;;;;;;;15.70;8.40;;;;;;;;;;5113924;28;20545;-71